This is the latest recevied weather packets stored in our database for station/object NG7M. If no packets are shown the sender has not sent any weather packets the latest 10 day(s).
| Time | Temp. | Humidity | Pressure | Rain* | Wind** | Luminosity | Snow |
|---|---|---|---|---|---|---|---|
| 1777980904 | 13.33° C | 59% | 1007.4 hPa | 0 mm | - | - | - |
| 1777980304 | 13.33° C | 58% | 1007.4 hPa | 0 mm | - | - | - |
| 1777978503 | 13.33° C | 57% | 1007.3 hPa | 0 mm | - | - | - |
| 1777976704 | 13.89° C | 54% | 1007.3 hPa | 0 mm | - | - | - |
| 1777976403 | 13.89° C | 53% | 1007.5 hPa | 0 mm | - | - | - |
| 1777972504 | 14.44° C | 52% | 1007.7 hPa | 0 mm | - | - | - |
| 1777970704 | 13.89° C | 52% | 1007.7 hPa | 0 mm | - | - | - |
| 1777970404 | 14.44° C | 52% | 1007.7 hPa | 0 mm | - | - | - |
| 1777969504 | 14.44° C | 50% | 1007.9 hPa | 0 mm | - | - | - |
| 1777967704 | 14.44° C | 53% | 1008.1 hPa | 0 mm | - | - | - |
| 1777965904 | 14.44° C | 52% | 1008.3 hPa | 0 mm | - | - | - |
| 1777961705 | 15° C | 53% | 1008.1 hPa | 0 mm | - | - | - |
| 1777961404 | 15° C | 52% | 1008.1 hPa | 0 mm | - | - | - |
| 1777957503 | 16.11° C | 44% | 1007.1 hPa | 0 mm | - | - | - |
| 1777955404 | 16.67° C | 41% | 1006.8 hPa | 0 mm | - | - | - |
| 1777953904 | 17.22° C | 37% | 1006.3 hPa | 0 mm | - | - | - |
| 1777953003 | 17.78° C | 37% | 1005.9 hPa | 0 mm | - | - | - |
| 1777951504 | 18.33° C | 33% | 1005.8 hPa | 0 mm | - | - | - |
| 1777950904 | 18.89° C | 30% | 1005.4 hPa | 0 mm | - | - | - |
| 1777947904 | 20° C | 28% | 1005.1 hPa | 0 mm | - | - | - |
| 1777947603 | 20° C | 28% | 1004.9 hPa | 0 mm | - | - | - |
| 1777944903 | 21.67° C | 24% | 1004.5 hPa | 0 mm | - | - | - |
| 1777940104 | 22.22° C | 24% | 1005.3 hPa | 0 mm | - | - | - |
| 1777939803 | 22.22° C | 24% | 1005.4 hPa | 0 mm | - | - | - |
| 1777938004 | 22.78° C | 21% | 1005.5 hPa | 0 mm | - | - | - |
* Rain latest hour (hover to see other rain measurements)
** Current wind speed in m/s (hover to see current wind gust speed)